Wetterdaten: Dienstag, 23.08.2011
Datum Zeit Temp. A. Feuchte A. Luftdruck Regen Wind Richtung Richtung Sonnenschein UV Solar Windben
23.08.2011 00:00 18,2 C 90 % 1017,2 hPa 0,0 mm 0,0 km/h (0 Bft) W-NW 292 0 min 0 UV-I 0 W/m 3,2 km/h (1 Bft)
23.08.2011 00:10 18,2 C 90 % 1017,2 hPa 0,0 mm 0,0 km/h (0 Bft) W-NW 292 0 min 0 UV-I 0 W/m 1,6 km/h (1 Bft)
23.08.2011 00:20 18,2 C 89 % 1017,1 hPa 0,0 mm 0,0 km/h (0 Bft) W-NW 292 0 min 0 UV-I 0 W/m 1,6 km/h (1 Bft)
23.08.2011 00:30 18,2 C 90 % 1016,9 hPa 0,0 mm 0,0 km/h (0 Bft) W-NW 292 0 min 0 UV-I 0 W/m 1,6 km/h (1 Bft)
23.08.2011 00:40 18,2 C 89 % 1017,2 hPa 0,0 mm 0,0 km/h (0 Bft) W-NW 292 0 min 0 UV-I 0 W/m 3,2 km/h (1 Bft)
23.08.2011 00:50 18,2 C 89 % 1016,6 hPa 0,0 mm 0,0 km/h (0 Bft) W-NW 292 0 min 0 UV-I 0 W/m 4,8 km/h (1 Bft)
23.08.2011 01:00 18,2 C 89 % 1016,9 hPa 0,0 mm 0,0 km/h (0 Bft) W-NW 292 0 min 0 UV-I 0 W/m 1,6 km/h (1 Bft)
23.08.2011 01:10 18,2 C 89 % 1017,0 hPa 0,0 mm 0,0 km/h (0 Bft) W-NW 292 0 min 0 UV-I 0 W/m 1,6 km/h (1 Bft)
23.08.2011 01:20 18,3 C 89 % 1016,7 hPa 0,0 mm 0,0 km/h (0 Bft) W-NW 292 0 min 0 UV-I 0 W/m 3,2 km/h (1 Bft)
23.08.2011 01:30 18,3 C 88 % 1016,8 hPa 0,0 mm 0,0 km/h (0 Bft) W-NW 292 0 min 0 UV-I 0 W/m 1,6 km/h (1 Bft)
23.08.2011 01:40 18,5 C 88 % 1016,4 hPa 0,0 mm 0,0 km/h (0 Bft) W-NW 292 0 min 0 UV-I 0 W/m 1,6 km/h (1 Bft)
23.08.2011 01:50 18,4 C 88 % 1016,1 hPa 0,0 mm 0,0 km/h (0 Bft) W-NW 292 0 min 0 UV-I 0 W/m 1,6 km/h (1 Bft)
23.08.2011 02:00 18,3 C 89 % 1015,7 hPa 0,0 mm 0,0 km/h (0 Bft) W-NW 292 0 min 0 UV-I 0 W/m 1,6 km/h (1 Bft)
23.08.2011 02:10 18,1 C 89 % 1015,7 hPa 0,0 mm 0,0 km/h (0 Bft) W-NW 292 0 min 0 UV-I 0 W/m 1,6 km/h (1 Bft)
23.08.2011 02:20 17,9 C 90 % 1015,7 hPa 0,0 mm 0,0 km/h (0 Bft) W-NW 292 0 min 0 UV-I 0 W/m 1,6 km/h (1 Bft)
23.08.2011 02:30 18,0 C 90 % 1015,7 hPa 0,0 mm 0,0 km/h (0 Bft) W-NW 292 0 min 0 UV-I 0 W/m 1,6 km/h (1 Bft)
23.08.2011 02:40 18,0 C 90 % 1015,6 hPa 0,0 mm 0,0 km/h (0 Bft) W-NW 292 0 min 0 UV-I 0 W/m 1,6 km/h (1 Bft)
23.08.2011 02:50 17,8 C 90 % 1014,8 hPa 0,0 mm 0,0 km/h (0 Bft) W-NW 292 0 min 0 UV-I 0 W/m 3,2 km/h (1 Bft)
23.08.2011 03:00 17,6 C 90 % 1014,7 hPa 0,0 mm 0,0 km/h (0 Bft) W-NW 292 0 min 0 UV-I 0 W/m 1,6 km/h (1 Bft)
23.08.2011 03:10 17,5 C 91 % 1014,6 hPa 0,0 mm 0,0 km/h (0 Bft) W-NW 292 0 min 0 UV-I 0 W/m 1,6 km/h (1 Bft)
23.08.2011 03:20 17,5 C 91 % 1014,7 hPa 0,0 mm 0,0 km/h (0 Bft) W-NW 292 0 min 0 UV-I 0 W/m 1,6 km/h (1 Bft)
23.08.2011 03:30 17,6 C 91 % 1014,6 hPa 0,0 mm 0,0 km/h (0 Bft) W-NW 292 0 min 0 UV-I 0 W/m 3,2 km/h (1 Bft)
23.08.2011 03:40 17,6 C 90 % 1014,2 hPa 0,0 mm 1,6 km/h (1 Bft) W-NW 292 0 min 0 UV-I 0 W/m 6,4 km/h (2 Bft)
23.08.2011 03:50 17,8 C 89 % 1013,7 hPa 0,0 mm 0,0 km/h (0 Bft) NW 315 0 min 0 UV-I 0 W/m 3,2 km/h (1 Bft)
23.08.2011 04:00 17,9 C 88 % 1014,2 hPa 0,0 mm 0,0 km/h (0 Bft) NW 315 0 min 0 UV-I 0 W/m 1,6 km/h (1 Bft)
23.08.2011 04:10 18,0 C 88 % 1014,4 hPa 0,0 mm 0,0 km/h (0 Bft) NW 315 0 min 0 UV-I 0 W/m 1,6 km/h (1 Bft)
23.08.2011 04:20 18,2 C 87 % 1017,9 hPa 0,0 mm 11,3 km/h (2 Bft) W-SW 247 0 min 0 UV-I 0 W/m 40,2 km/h (6 Bft)
23.08.2011 04:30 18,7 C 86 % 1018,6 hPa 1,3 mm 9,7 km/h (2 Bft) W 270 0 min 0 UV-I 0 W/m 35,4 km/h (5 Bft)
23.08.2011 04:40 18,8 C 87 % 1018,3 hPa 3,3 mm 4,8 km/h (1 Bft) W 270 0 min 0 UV-I 0 W/m 16,1 km/h (3 Bft)
23.08.2011 04:50 18,4 C 89 % 1017,0 hPa 2,0 mm 1,6 km/h (1 Bft) NO 45 0 min 0 UV-I 0 W/m 6,4 km/h (2 Bft)
23.08.2011 05:00 18,2 C 90 % 1015,9 hPa 0,5 mm 1,6 km/h (1 Bft) NO 45 0 min 0 UV-I 0 W/m 6,4 km/h (2 Bft)
23.08.2011 05:10 18,0 C 91 % 1015,6 hPa 0,3 mm 3,2 km/h (1 Bft) O-NO 67 0 min 0 UV-I 0 W/m 9,7 km/h (2 Bft)
23.08.2011 05:20 17,8 C 91 % 1015,3 hPa 0,0 mm 3,2 km/h (1 Bft) O 90 0 min 0 UV-I 0 W/m 11,3 km/h (2 Bft)
23.08.2011 05:30 17,8 C 92 % 1015,1 hPa 0,0 mm 3,2 km/h (1 Bft) O 90 0 min 0 UV-I 0 W/m 11,3 km/h (2 Bft)
23.08.2011 05:40 17,7 C 92 % 1015,6 hPa 0,0 mm 1,6 km/h (1 Bft) SO 135 0 min 0 UV-I 0 W/m 12,9 km/h (3 Bft)
23.08.2011 05:50 17,7 C 92 % 1015,5 hPa 1,8 mm 1,6 km/h (1 Bft) SO 135 0 min 0 UV-I 0 W/m 8,0 km/h (2 Bft)
23.08.2011 06:00 17,7 C 93 % 1014,6 hPa 2,0 mm 3,2 km/h (1 Bft) O-SO 112 0 min 0 UV-I 0 W/m 8,0 km/h (2 Bft)
23.08.2011 06:10 17,6 C 93 % 1014,6 hPa 0,3 mm 1,6 km/h (1 Bft) O 90 0 min 0 UV-I 0 W/m 8,0 km/h (2 Bft)
23.08.2011 06:20 17,5 C 93 % 1014,6 hPa 0,0 mm 3,2 km/h (1 Bft) O-SO 112 0 min 0 UV-I 0 W/m 9,7 km/h (2 Bft)
23.08.2011 06:30 17,4 C 93 % 1014,3 hPa 0,0 mm 3,2 km/h (1 Bft) O-SO 112 0 min 0 UV-I 0 W/m 9,7 km/h (2 Bft)
23.08.2011 06:40 17,5 C 93 % 1014,1 hPa 0,0 mm 3,2 km/h (1 Bft) O-SO 112 0 min 0 UV-I 0 W/m 11,3 km/h (2 Bft)
23.08.2011 06:50 17,6 C 93 % 1014,1 hPa 0,0 mm 1,6 km/h (1 Bft) O-SO 112 0 min 0 UV-I 5 W/m 8,0 km/h (2 Bft)
23.08.2011 07:00 17,6 C 93 % 1014,3 hPa 0,0 mm 1,6 km/h (1 Bft) O-SO 112 0 min 0 UV-I 7 W/m 8,0 km/h (2 Bft)
23.08.2011 07:10 17,6 C 93 % 1014,4 hPa 0,0 mm 0,0 km/h (0 Bft) O-SO 112 0 min 0 UV-I 11 W/m 4,8 km/h (1 Bft)
23.08.2011 07:20 17,6 C 94 % 1014,6 hPa 0,0 mm 0,0 km/h (0 Bft) O-SO 112 0 min 0 UV-I 12 W/m 1,6 km/h (1 Bft)
23.08.2011 07:30 17,7 C 94 % 1014,6 hPa 0,0 mm 0,0 km/h (0 Bft) O-SO 112 0 min 0 UV-I 12 W/m 4,8 km/h (1 Bft)
23.08.2011 07:40 17,7 C 93 % 1014,1 hPa 0,0 mm 0,0 km/h (0 Bft) O-SO 112 0 min 0 UV-I 30 W/m 4,8 km/h (1 Bft)
23.08.2011 07:50 17,7 C 94 % 1014,9 hPa 0,0 mm 0,0 km/h (0 Bft) O-SO 112 0 min 0 UV-I 32 W/m 1,6 km/h (1 Bft)
23.08.2011 08:00 17,9 C 94 % 1014,6 hPa 0,0 mm 0,0 km/h (0 Bft) O-SO 112 0 min 0 UV-I 54 W/m 1,6 km/h (1 Bft)
23.08.2011 08:10 18,0 C 94 % 1014,9 hPa 0,0 mm 0,0 km/h (0 Bft) O-SO 112 0 min 0 UV-I 62 W/m 3,2 km/h (1 Bft)
23.08.2011 08:20 18,0 C 94 % 1014,1 hPa 0,0 mm 5,1 km/h (1 Bft) O-SO 114 0 min 0 UV-I 37 W/m 11,3 km/h (2 Bft)
23.08.2011 08:30 17,9 C 94 % 1014,1 hPa 0,0 mm 4,8 km/h (1 Bft) O-SO 112 0 min 1 UV-I 141 W/m 16,1 km/h (3 Bft)
23.08.2011 08:40 18,2 C 94 % 1014,1 hPa 0,0 mm 3,2 km/h (1 Bft) O-SO 112 10 min 1 UV-I 216 W/m 9,7 km/h (2 Bft)
23.08.2011 08:50 18,6 C 94 % 1014,1 hPa 0,0 mm 3,2 km/h (1 Bft) O-SO 112 10 min 1 UV-I 274 W/m 11,3 km/h (2 Bft)
23.08.2011 09:00 18,9 C 93 % 1013,9 hPa 0,0 mm 3,2 km/h (1 Bft) O-SO 112 10 min 1 UV-I 306 W/m 11,3 km/h (2 Bft)
23.08.2011 09:10 19,3 C 93 % 1014,1 hPa 0,0 mm 3,2 km/h (1 Bft) O 90 10 min 1 UV-I 332 W/m 12,9 km/h (3 Bft)
23.08.2011 09:20 19,6 C 91 % 1013,7 hPa 0,0 mm 4,8 km/h (1 Bft) O-SO 112 10 min 2 UV-I 322 W/m 17,7 km/h (3 Bft)
23.08.2011 09:30 19,8 C 89 % 1013,8 hPa 0,0 mm 6,4 km/h (2 Bft) O 90 10 min 2 UV-I 364 W/m 17,7 km/h (3 Bft)
23.08.2011 09:40 20,2 C 87 % 1013,8 hPa 0,0 mm 6,4 km/h (2 Bft) O-SO 112 10 min 2 UV-I 380 W/m 17,7 km/h (3 Bft)
23.08.2011 09:50 20,3 C 86 % 1013,6 hPa 0,0 mm 9,7 km/h (2 Bft) O-SO 112 10 min 2 UV-I 401 W/m 27,4 km/h (4 Bft)
23.08.2011 10:00 20,6 C 85 % 1013,6 hPa 0,0 mm 9,7 km/h (2 Bft) O-SO 112 10 min 2 UV-I 424 W/m 24,1 km/h (4 Bft)
23.08.2011 10:10 21,0 C 83 % 1013,6 hPa 0,0 mm 8,0 km/h (2 Bft) O-SO 112 10 min 3 UV-I 445 W/m 24,1 km/h (4 Bft)
23.08.2011 10:20 21,4 C 81 % 1013,5 hPa 0,0 mm 8,0 km/h (2 Bft) O-SO 112 10 min 3 UV-I 469 W/m 24,1 km/h (4 Bft)
23.08.2011 10:30 21,8 C 79 % 1013,2 hPa 0,0 mm 9,7 km/h (2 Bft) O 90 10 min 3 UV-I 496 W/m 22,5 km/h (4 Bft)
23.08.2011 10:40 22,0 C 78 % 1012,8 hPa 0,0 mm 6,4 km/h (2 Bft) O 90 10 min 3 UV-I 520 W/m 17,7 km/h (3 Bft)
23.08.2011 10:50 22,6 C 77 % 1012,7 hPa 0,0 mm 4,8 km/h (1 Bft) O 90 10 min 4 UV-I 552 W/m 17,7 km/h (3 Bft)
23.08.2011 11:00 22,9 C 77 % 1012,4 hPa 0,0 mm 6,4 km/h (2 Bft) O 90 10 min 4 UV-I 573 W/m 20,9 km/h (4 Bft)
23.08.2011 11:10 23,3 C 75 % 1012,2 hPa 0,0 mm 8,0 km/h (2 Bft) O 90 10 min 4 UV-I 585 W/m 25,7 km/h (4 Bft)
23.08.2011 11:20 23,5 C 74 % 1012,2 hPa 0,0 mm 6,4 km/h (2 Bft) O 90 10 min 4 UV-I 608 W/m 19,3 km/h (3 Bft)
23.08.2011 11:30 23,8 C 72 % 1012,2 hPa 0,0 mm 9,7 km/h (2 Bft) O 90 10 min 5 UV-I 668 W/m 27,4 km/h (4 Bft)
23.08.2011 11:40 23,9 C 71 % 1012,0 hPa 0,0 mm 9,7 km/h (2 Bft) O 90 10 min 5 UV-I 701 W/m 24,1 km/h (4 Bft)
23.08.2011 11:50 23,4 C 74 % 1012,1 hPa 0,0 mm 8,0 km/h (2 Bft) O 90 10 min 5 UV-I 693 W/m 20,9 km/h (4 Bft)
23.08.2011 12:00 23,7 C 73 % 1012,1 hPa 0,0 mm 8,0 km/h (2 Bft) O 90 10 min 5 UV-I 717 W/m 20,9 km/h (4 Bft)
23.08.2011 12:10 24,1 C 71 % 1012,1 hPa 0,0 mm 6,4 km/h (2 Bft) O 90 10 min 5 UV-I 784 W/m 20,9 km/h (4 Bft)
23.08.2011 12:20 24,8 C 70 % 1012,0 hPa 0,0 mm 8,0 km/h (2 Bft) O 90 10 min 6 UV-I 824 W/m 19,3 km/h (3 Bft)
23.08.2011 12:30 24,7 C 72 % 1011,3 hPa 0,0 mm 9,7 km/h (2 Bft) O 90 0 min 5 UV-I 322 W/m 22,5 km/h (4 Bft)
23.08.2011 12:40 24,6 C 70 % 1011,7 hPa 0,0 mm 4,8 km/h (1 Bft) O-SO 112 10 min 6 UV-I 777 W/m 16,1 km/h (3 Bft)
23.08.2011 12:50 25,3 C 69 % 1011,9 hPa 0,0 mm 4,8 km/h (1 Bft) O 90 10 min 6 UV-I 700 W/m 16,1 km/h (3 Bft)
23.08.2011 13:00 25,3 C 70 % 1011,5 hPa 0,0 mm 4,8 km/h (1 Bft) O 90 10 min 6 UV-I 777 W/m 14,5 km/h (3 Bft)
23.08.2011 13:10 26,2 C 69 % 1011,4 hPa 0,0 mm 6,4 km/h (2 Bft) O-SO 112 10 min 6 UV-I 805 W/m 17,7 km/h (3 Bft)
23.08.2011 13:20 26,8 C 66 % 1011,4 hPa 0,0 mm 6,4 km/h (2 Bft) O-SO 112 10 min 6 UV-I 826 W/m 16,1 km/h (3 Bft)
23.08.2011 13:30 26,9 C 66 % 1011,3 hPa 0,0 mm 4,8 km/h (1 Bft) O 90 10 min 6 UV-I 838 W/m 17,7 km/h (3 Bft)
23.08.2011 13:40 26,9 C 67 % 1011,3 hPa 0,0 mm 6,4 km/h (2 Bft) O-SO 112 10 min 6 UV-I 772 W/m 22,5 km/h (4 Bft)
23.08.2011 13:50 27,1 C 66 % 1011,1 hPa 0,0 mm 8,0 km/h (2 Bft) O-SO 112 10 min 6 UV-I 756 W/m 17,7 km/h (3 Bft)
23.08.2011 14:00 27,3 C 66 % 1010,8 hPa 0,0 mm 4,8 km/h (1 Bft) O-SO 112 10 min 6 UV-I 740 W/m 17,7 km/h (3 Bft)
23.08.2011 14:10 28,0 C 64 % 1010,5 hPa 0,0 mm 4,8 km/h (1 Bft) O 90 10 min 6 UV-I 742 W/m 19,3 km/h (3 Bft)
23.08.2011 14:20 28,3 C 65 % 1010,5 hPa 0,0 mm 4,8 km/h (1 Bft) O 90 10 min 6 UV-I 740 W/m 14,5 km/h (3 Bft)
23.08.2011 14:30 28,6 C 62 % 1010,5 hPa 0,0 mm 4,8 km/h (1 Bft) O 90 10 min 6 UV-I 768 W/m 11,3 km/h (2 Bft)
23.08.2011 14:40 28,4 C 63 % 1010,7 hPa 0,0 mm 4,8 km/h (1 Bft) SO 135 10 min 6 UV-I 754 W/m 17,7 km/h (3 Bft)
23.08.2011 14:50 28,4 C 61 % 1011,0 hPa 0,0 mm 4,8 km/h (1 Bft) S-SO 157 10 min 6 UV-I 833 W/m 17,7 km/h (3 Bft)
23.08.2011 15:00 28,7 C 62 % 1011,1 hPa 0,0 mm 4,8 km/h (1 Bft) S-SO 157 10 min 5 UV-I 777 W/m 12,9 km/h (3 Bft)
23.08.2011 15:10 28,1 C 65 % 1011,0 hPa 0,0 mm 3,2 km/h (1 Bft) O-SO 112 0 min 3 UV-I 304 W/m 9,7 km/h (2 Bft)
23.08.2011 15:20 27,7 C 64 % 1010,9 hPa 0,0 mm 0,0 km/h (0 Bft) SO 135 10 min 4 UV-I 487 W/m 6,4 km/h (2 Bft)
23.08.2011 15:30 28,2 C 64 % 1010,7 hPa 0,0 mm 0,0 km/h (0 Bft) O 90 10 min 5 UV-I 807 W/m 4,8 km/h (1 Bft)
23.08.2011 15:40 29,2 C 64 % 1010,6 hPa 0,0 mm 1,6 km/h (1 Bft) O-NO 67 10 min 4 UV-I 728 W/m 8,0 km/h (2 Bft)
23.08.2011 15:50 29,4 C 61 % 1010,5 hPa 0,0 mm 1,6 km/h (1 Bft) NO 45 10 min 4 UV-I 714 W/m 8,0 km/h (2 Bft)
23.08.2011 16:00 29,9 C 61 % 1010,3 hPa 0,0 mm 4,1 km/h (1 Bft) O 83 10 min 4 UV-I 605 W/m 8,0 km/h (2 Bft)
23.08.2011 16:10 30,3 C 59 % 1010,2 hPa 0,0 mm 2,6 km/h (1 Bft) O-NO 60 10 min 4 UV-I 589 W/m 9,7 km/h (2 Bft)
23.08.2011 16:20 29,9 C 61 % 1010,4 hPa 0,0 mm 0,9 km/h (0 Bft) N-NO 19 10 min 3 UV-I 564 W/m 8,0 km/h (2 Bft)
23.08.2011 16:30 29,3 C 61 % 1010,5 hPa 0,0 mm 1,8 km/h (1 Bft) N-NO 21 10 min 3 UV-I 568 W/m 6,4 km/h (2 Bft)
23.08.2011 16:40 29,0 C 62 % 1010,6 hPa 0,0 mm 1,6 km/h (1 Bft) N 360 10 min 2 UV-I 606 W/m 6,4 km/h (2 Bft)
23.08.2011 16:50 29,0 C 63 % 1010,5 hPa 0,0 mm 1,6 km/h (1 Bft) N 360 10 min 3 UV-I 548 W/m 4,8 km/h (1 Bft)
23.08.2011 17:00 29,3 C 62 % 1010,5 hPa 0,0 mm 1,6 km/h (1 Bft) N 360 10 min 3 UV-I 503 W/m 6,4 km/h (2 Bft)
23.08.2011 17:10 29,6 C 61 % 1010,4 hPa 0,0 mm 1,6 km/h (1 Bft) N 360 10 min 2 UV-I 459 W/m 6,4 km/h (2 Bft)
23.08.2011 17:20 29,4 C 63 % 1010,4 hPa 0,0 mm 0,0 km/h (0 Bft) N 360 10 min 2 UV-I 432 W/m 4,8 km/h (1 Bft)
23.08.2011 17:30 29,2 C 63 % 1010,5 hPa 0,0 mm 0,0 km/h (0 Bft) N 360 10 min 2 UV-I 406 W/m 1,6 km/h (1 Bft)
23.08.2011 17:40 29,3 C 62 % 1010,6 hPa 0,0 mm 0,0 km/h (0 Bft) N 360 10 min 2 UV-I 369 W/m 3,2 km/h (1 Bft)
23.08.2011 17:50 28,9 C 62 % 1010,5 hPa 0,0 mm 0,0 km/h (0 Bft) N 360 10 min 2 UV-I 332 W/m 4,8 km/h (1 Bft)
23.08.2011 18:00 28,7 C 64 % 1010,3 hPa 0,0 mm 0,0 km/h (0 Bft) N 360 10 min 1 UV-I 308 W/m 3,2 km/h (1 Bft)
23.08.2011 18:10 28,6 C 64 % 1010,2 hPa 0,0 mm 0,0 km/h (0 Bft) N 360 10 min 1 UV-I 287 W/m 1,6 km/h (1 Bft)
23.08.2011 18:20 28,7 C 63 % 1010,1 hPa 0,0 mm 0,0 km/h (0 Bft) N 360 10 min 1 UV-I 264 W/m 1,6 km/h (1 Bft)
23.08.2011 18:30 28,7 C 65 % 1010,2 hPa 0,0 mm 0,0 km/h (0 Bft) N 360 10 min 1 UV-I 239 W/m 1,6 km/h (1 Bft)
23.08.2011 18:40 28,6 C 65 % 1010,3 hPa 0,0 mm 0,0 km/h (0 Bft) N 360 10 min 1 UV-I 221 W/m 1,6 km/h (1 Bft)
23.08.2011 18:50 28,3 C 66 % 1010,2 hPa 0,0 mm 0,0 km/h (0 Bft) N 360 10 min 1 UV-I 216 W/m 1,6 km/h (1 Bft)
23.08.2011 19:00 28,3 C 66 % 1009,9 hPa 0,0 mm 0,0 km/h (0 Bft) N 360 10 min 1 UV-I 181 W/m 1,6 km/h (1 Bft)
23.08.2011 19:10 28,1 C 67 % 1010,0 hPa 0,0 mm 0,0 km/h (0 Bft) N 360 10 min 1 UV-I 160 W/m 1,6 km/h (1 Bft)
23.08.2011 19:20 27,9 C 66 % 1010,3 hPa 0,0 mm 0,0 km/h (0 Bft) N 360 10 min 1 UV-I 144 W/m 4,8 km/h (1 Bft)
23.08.2011 19:30 27,8 C 67 % 1010,3 hPa 0,0 mm 0,0 km/h (0 Bft) N 360 10 min 1 UV-I 100 W/m 3,2 km/h (1 Bft)
23.08.2011 19:40 27,6 C 69 % 1010,3 hPa 0,0 mm 0,0 km/h (0 Bft) N 360 10 min 0 UV-I 95 W/m 1,6 km/h (1 Bft)
23.08.2011 19:50 27,3 C 70 % 1010,4 hPa 0,0 mm 0,0 km/h (0 Bft) N 360 10 min 0 UV-I 83 W/m 1,6 km/h (1 Bft)
23.08.2011 20:00 27,1 C 72 % 1010,4 hPa 0,0 mm 0,0 km/h (0 Bft) N 360 10 min 0 UV-I 69 W/m 1,6 km/h (1 Bft)
23.08.2011 20:10 26,8 C 72 % 1010,6 hPa 0,0 mm 0,0 km/h (0 Bft) N 360 10 min 0 UV-I 62 W/m 4,8 km/h (1 Bft)
23.08.2011 20:20 26,6 C 73 % 1010,7 hPa 0,0 mm 0,0 km/h (0 Bft) N 360 10 min 0 UV-I 47 W/m 4,8 km/h (1 Bft)
23.08.2011 20:30 26,3 C 73 % 1010,8 hPa 0,0 mm 0,0 km/h (0 Bft) N-NW 337 0 min 0 UV-I 32 W/m 3,2 km/h (1 Bft)
23.08.2011 20:40 26,1 C 75 % 1010,9 hPa 0,0 mm 0,0 km/h (0 Bft) N 0 0 min 0 UV-I 11 W/m 0,0 km/h (0 Bft)
23.08.2011 20:50 25,8 C 75 % 1011,1 hPa 0,0 mm 0,0 km/h (0 Bft) N-NW 337 0 min 0 UV-I 0 W/m 1,6 km/h (1 Bft)
23.08.2011 21:00 25,7 C 76 % 1011,1 hPa 0,0 mm 0,0 km/h (0 Bft) N-NW 337 0 min 0 UV-I 0 W/m 4,8 km/h (1 Bft)
23.08.2011 21:10 25,4 C 77 % 1011,2 hPa 0,0 mm 0,0 km/h (0 Bft) N-NW 337 0 min 0 UV-I 0 W/m 1,6 km/h (1 Bft)
23.08.2011 21:20 25,1 C 79 % 1011,5 hPa 0,0 mm 0,0 km/h (0 Bft) N-NW 337 0 min 0 UV-I 0 W/m 1,6 km/h (1 Bft)
23.08.2011 21:30 24,7 C 80 % 1011,2 hPa 0,0 mm 0,0 km/h (0 Bft) N 0 0 min 0 UV-I 0 W/m 0,0 km/h (0 Bft)
23.08.2011 21:40 24,2 C 82 % 1011,4 hPa 0,0 mm 0,0 km/h (0 Bft) N 0 0 min 0 UV-I 0 W/m 0,0 km/h (0 Bft)
23.08.2011 21:50 23,7 C 84 % 1011,3 hPa 0,0 mm 0,0 km/h (0 Bft) N 0 0 min 0 UV-I 0 W/m 0,0 km/h (0 Bft)
23.08.2011 22:00 23,4 C 85 % 1011,6 hPa 0,0 mm 0,0 km/h (0 Bft) N 0 0 min 0 UV-I 0 W/m 0,0 km/h (0 Bft)
23.08.2011 22:10 23,2 C 85 % 1011,8 hPa 0,0 mm 0,0 km/h (0 Bft) N 0 0 min 0 UV-I 0 W/m 0,0 km/h (0 Bft)
23.08.2011 22:20 23,0 C 86 % 1011,9 hPa 0,0 mm 0,0 km/h (0 Bft) N 0 0 min 0 UV-I 0 W/m 0,0 km/h (0 Bft)
23.08.2011 22:30 22,7 C 87 % 1012,0 hPa 0,0 mm 0,0 km/h (0 Bft) N 0 0 min 0 UV-I 0 W/m 0,0 km/h (0 Bft)
23.08.2011 22:40 22,6 C 87 % 1011,9 hPa 0,0 mm 0,0 km/h (0 Bft) N 0 0 min 0 UV-I 0 W/m 0,0 km/h (0 Bft)
23.08.2011 22:50 22,3 C 88 % 1012,1 hPa 0,0 mm 0,0 km/h (0 Bft) N 0 0 min 0 UV-I 0 W/m 0,0 km/h (0 Bft)
23.08.2011 23:00 22,2 C 89 % 1012,1 hPa 0,0 mm 0,0 km/h (0 Bft) N-NW 337 0 min 0 UV-I 0 W/m 1,6 km/h (1 Bft)
23.08.2011 23:10 22,1 C 89 % 1012,3 hPa 0,0 mm 0,0 km/h (0 Bft) N 0 0 min 0 UV-I 0 W/m 0,0 km/h (0 Bft)
23.08.2011 23:20 21,9 C 89 % 1012,3 hPa 0,0 mm 0,0 km/h (0 Bft) N 0 0 min 0 UV-I 0 W/m 0,0 km/h (0 Bft)
23.08.2011 23:30 21,6 C 90 % 1012,3 hPa 0,0 mm 0,0 km/h (0 Bft) N 0 0 min 0 UV-I 0 W/m 0,0 km/h (0 Bft)
23.08.2011 23:40 21,5 C 90 % 1012,3 hPa 0,0 mm 0,0 km/h (0 Bft) N 0 0 min 0 UV-I 0 W/m 0,0 km/h (0 Bft)
23.08.2011 23:50 21,3 C 90 % 1012,4 hPa 0,0 mm 0,0 km/h (0 Bft) N 0 0 min 0 UV-I 0 W/m 0,0 km/h (0 Bft)
_ Min-Zeit 03:10 16:10 19:00 - 00:00 - - - - - 20:40
Minimum _ 17,4 C 59 % 1009,9 hPa - 0,0 km/h (0 Bft) - - - - - 0,0 km/h (0 Bft)
_ Max-Zeit 16:10 07:20 04:30 04:40 04:20 - - 08:40 13:30 13:30 04:20
Maximum _ 30,3 C 94 % 1018,6 hPa 3,3 mm 11,3 km/h
W-SW (2 Bft)
- - 10 min 6 UV-I 838 W/m 40,2 km/h
W (6 Bft)
Durchschnitt _ 22,7 C 80 % 1012,9 hPa #11,4 mm 2,4 km/h (1 Bft) O - #11:30 h 3 UV-I 423 W/m 8,4 km/h (2 Bft)